createdAt,value
2017-08-28T00:00:02.662Z,2.70
2017-08-28T00:00:06.918Z,2.70
2017-08-28T00:00:11.192Z,2.73
2017-08-28T00:00:15.441Z,2.70
2017-08-28T00:00:19.716Z,2.70
2017-08-28T00:00:23.960Z,2.70
2017-08-28T00:00:28.216Z,2.70
2017-08-28T00:00:32.467Z,2.75
2017-08-28T00:00:36.739Z,2.70
2017-08-28T00:00:40.998Z,2.70
2017-08-28T00:00:45.360Z,2.80
2017-08-28T00:00:49.608Z,2.90
2017-08-28T00:00:53.840Z,3.00
2017-08-28T00:00:58.084Z,3.00
2017-08-28T00:01:02.346Z,3.00
2017-08-28T00:01:06.602Z,3.00
2017-08-28T00:01:10.886Z,3.00
2017-08-28T00:01:15.130Z,3.00
2017-08-28T00:01:19.398Z,3.00
2017-08-28T00:01:23.668Z,3.00
2017-08-28T00:01:27.944Z,2.90
2017-08-28T00:01:32.970Z,2.90
2017-08-28T00:01:37.236Z,2.83
2017-08-28T00:01:41.493Z,2.90
2017-08-28T00:01:45.736Z,2.90
2017-08-28T00:01:49.982Z,2.90
2017-08-28T00:01:54.223Z,2.90
2017-08-28T00:01:58.476Z,2.90
2017-08-28T00:02:02.762Z,2.90
2017-08-28T00:02:07.000Z,2.95
2017-08-28T00:02:11.277Z,3.00
2017-08-28T00:02:15.538Z,3.10
2017-08-28T00:02:19.814Z,3.05
2017-08-28T00:02:24.064Z,3.00
2017-08-28T00:02:28.334Z,3.00
2017-08-28T00:02:32.613Z,3.00
2017-08-28T00:02:37.683Z,2.95
2017-08-28T00:02:41.934Z,2.83
2017-08-28T00:02:46.200Z,2.70
2017-08-28T00:02:50.440Z,2.70
2017-08-28T00:02:54.722Z,2.60
2017-08-28T00:02:58.970Z,2.60
2017-08-28T00:03:03.255Z,2.60
2017-08-28T00:03:07.503Z,2.63
2017-08-28T00:03:11.772Z,2.70
2017-08-28T00:03:16.008Z,2.70
2017-08-28T00:03:20.286Z,2.75
2017-08-28T00:03:24.601Z,2.83
2017-08-28T00:03:28.866Z,2.90
2017-08-28T00:03:33.112Z,3.00
2017-08-28T00:03:37.396Z,3.00
2017-08-28T00:03:41.661Z,3.00
2017-08-28T00:03:45.933Z,2.90
2017-08-28T00:03:50.211Z,2.95
2017-08-28T00:03:54.452Z,3.00
2017-08-28T00:03:58.703Z,3.00
2017-08-28T00:04:02.974Z,3.00
2017-08-28T00:04:07.234Z,3.00
2017-08-28T00:04:11.529Z,3.00
2017-08-28T00:04:15.786Z,2.90
2017-08-28T00:04:20.072Z,2.95
2017-08-28T00:04:25.080Z,2.97
2017-08-28T00:04:30.121Z,2.87
2017-08-28T00:04:34.367Z,2.80
2017-08-28T00:04:38.639Z,2.80
2017-08-28T00:04:42.897Z,2.90
2017-08-28T00:04:47.151Z,2.93
2017-08-28T00:04:51.402Z,2.90
2017-08-28T00:04:55.659Z,2.90
2017-08-28T00:04:59.910Z,2.90
2017-08-28T00:05:04.930Z,2.93
2017-08-28T00:05:09.187Z,2.77
2017-08-28T00:05:13.477Z,2.70
2017-08-28T00:05:17.727Z,2.80
2017-08-28T00:05:21.994Z,2.80
2017-08-28T00:05:26.249Z,2.85
2017-08-28T00:05:30.532Z,2.90
2017-08-28T00:05:35.594Z,2.80
2017-08-28T00:05:39.842Z,2.87
2017-08-28T00:05:44.105Z,2.90
2017-08-28T00:05:48.348Z,3.00
2017-08-28T00:05:52.614Z,3.10
2017-08-28T00:05:56.866Z,3.10
2017-08-28T00:06:01.148Z,3.10
2017-08-28T00:06:05.411Z,3.20
2017-08-28T00:06:09.654Z,3.30
2017-08-28T00:06:13.914Z,3.30
2017-08-28T00:06:18.166Z,3.10
2017-08-28T00:06:22.440Z,3.10
2017-08-28T00:06:26.698Z,3.10
2017-08-28T00:06:30.972Z,3.10
2017-08-28T00:06:35.222Z,3.00
2017-08-28T00:06:39.492Z,2.90
2017-08-28T00:06:43.781Z,2.90
2017-08-28T00:06:48.044Z,2.70
2017-08-28T00:06:52.285Z,2.60
2017-08-28T00:06:56.573Z,2.50
2017-08-28T00:07:00.848Z,2.60
2017-08-28T00:07:05.102Z,2.60
2017-08-28T00:07:09.468Z,2.70
2017-08-28T00:07:13.700Z,2.60
2017-08-28T00:07:17.959Z,2.60
2017-08-28T00:07:22.200Z,2.80
2017-08-28T00:07:26.464Z,2.70
2017-08-28T00:07:30.730Z,2.70
2017-08-28T00:07:35.027Z,2.70
2017-08-28T00:07:39.270Z,2.80
2017-08-28T00:07:43.521Z,2.90
2017-08-28T00:07:47.815Z,3.00
2017-08-28T00:07:52.066Z,3.00
2017-08-28T00:07:56.336Z,3.05
2017-08-28T00:08:00.622Z,3.00
2017-08-28T00:08:04.870Z,2.90
2017-08-28T00:08:09.136Z,2.90
2017-08-28T00:08:13.382Z,3.00
2017-08-28T00:08:17.629Z,3.00
2017-08-28T00:08:21.902Z,2.80
2017-08-28T00:08:26.164Z,2.90
2017-08-28T00:08:30.416Z,2.90
2017-08-28T00:08:34.664Z,2.90
2017-08-28T00:08:38.944Z,2.90
2017-08-28T00:08:43.194Z,2.80
2017-08-28T00:08:47.460Z,2.80
2017-08-28T00:08:51.704Z,2.80
2017-08-28T00:08:55.962Z,2.70
2017-08-28T00:09:00.228Z,2.70
2017-08-28T00:09:04.487Z,2.75
2017-08-28T00:09:08.761Z,2.80
2017-08-28T00:09:13.040Z,2.80
2017-08-28T00:09:17.318Z,2.80
2017-08-28T00:09:21.570Z,2.80
2017-08-28T00:09:25.816Z,2.80
2017-08-28T00:09:30.074Z,2.80
2017-08-28T00:09:34.352Z,2.70
2017-08-28T00:09:38.604Z,2.70
2017-08-28T00:09:42.860Z,2.70
2017-08-28T00:09:47.118Z,2.87
2017-08-28T00:09:51.379Z,2.85
2017-08-28T00:09:55.628Z,2.95
2017-08-28T00:09:59.897Z,3.00
2017-08-28T00:10:04.166Z,3.00
2017-08-28T00:10:08.432Z,3.00
2017-08-28T00:10:12.696Z,2.90
2017-08-28T00:10:16.954Z,2.95
2017-08-28T00:10:21.197Z,3.00
2017-08-28T00:10:25.440Z,2.90
2017-08-28T00:10:29.688Z,2.90
2017-08-28T00:10:33.946Z,3.13
2017-08-28T00:10:38.213Z,3.20
2017-08-28T00:10:42.480Z,3.20
2017-08-28T00:10:46.757Z,3.05
2017-08-28T00:10:51.003Z,3.07
2017-08-28T00:10:55.293Z,3.00
2017-08-28T00:10:59.551Z,3.00
2017-08-28T00:11:03.830Z,3.00
2017-08-28T00:11:08.846Z,3.03
2017-08-28T00:11:13.088Z,3.23
2017-08-28T00:11:17.346Z,3.20
2017-08-28T00:11:22.379Z,3.20
2017-08-28T00:11:26.636Z,3.27
2017-08-28T00:11:30.916Z,3.30
2017-08-28T00:11:35.149Z,3.10
2017-08-28T00:11:39.411Z,3.20
2017-08-28T00:11:43.648Z,3.20
2017-08-28T00:11:47.928Z,3.20
2017-08-28T00:11:52.192Z,3.20
2017-08-28T00:11:56.450Z,3.20
2017-08-28T00:12:00.694Z,3.20
2017-08-28T00:12:04.959Z,3.30
2017-08-28T00:12:09.964Z,3.15
2017-08-28T00:12:14.208Z,3.10
2017-08-28T00:12:18.473Z,3.10
2017-08-28T00:12:22.758Z,3.17
2017-08-28T00:12:27.034Z,3.20
2017-08-28T00:12:31.256Z,3.15
2017-08-28T00:12:35.528Z,3.10
2017-08-28T00:12:39.787Z,3.17
2017-08-28T00:12:44.032Z,3.10
2017-08-28T00:12:48.286Z,3.10
2017-08-28T00:12:53.300Z,3.10
2017-08-28T00:12:57.562Z,3.00
2017-08-28T00:13:01.800Z,2.95
2017-08-28T00:13:06.826Z,2.90
2017-08-28T00:13:11.104Z,2.90
2017-08-28T00:13:15.346Z,2.85
2017-08-28T00:13:19.622Z,2.80
2017-08-28T00:13:23.875Z,2.75
2017-08-28T00:13:28.149Z,2.70
2017-08-28T00:13:32.404Z,2.80
2017-08-28T00:13:36.662Z,2.70
2017-08-28T00:13:40.918Z,2.60
2017-08-28T00:13:45.164Z,2.65
2017-08-28T00:13:49.416Z,2.60
2017-08-28T00:13:53.662Z,2.60
2017-08-28T00:13:57.917Z,2.60
2017-08-28T00:14:02.188Z,2.60
2017-08-28T00:14:06.436Z,2.60
2017-08-28T00:14:10.680Z,2.60
2017-08-28T00:14:14.950Z,2.60
2017-08-28T00:14:19.203Z,2.50
2017-08-28T00:14:24.216Z,2.50
2017-08-28T00:14:28.488Z,2.60
2017-08-28T00:14:32.724Z,2.60
2017-08-28T00:14:36.989Z,2.60
2017-08-28T00:14:41.244Z,2.60
2017-08-28T00:14:45.501Z,2.60
2017-08-28T00:14:49.759Z,2.60
2017-08-28T00:14:54.024Z,2.75
2017-08-28T00:14:58.276Z,2.80
2017-08-28T00:15:02.528Z,2.80
2017-08-28T00:15:06.809Z,2.80
2017-08-28T00:15:11.075Z,2.87
2017-08-28T00:15:15.360Z,2.90
2017-08-28T00:15:19.602Z,3.05
2017-08-28T00:15:23.858Z,3.10
2017-08-28T00:15:28.121Z,2.93
2017-08-28T00:15:32.366Z,3.00
2017-08-28T00:15:36.608Z,3.00
2017-08-28T00:15:40.916Z,3.00
2017-08-28T00:15:45.182Z,3.10
2017-08-28T00:15:49.424Z,3.05
2017-08-28T00:15:53.697Z,2.90
2017-08-28T00:15:57.950Z,2.90
2017-08-28T00:16:02.224Z,3.00
2017-08-28T00:16:06.503Z,3.05
2017-08-28T00:16:10.752Z,3.00
2017-08-28T00:16:15.029Z,3.00
2017-08-28T00:16:19.283Z,3.00
2017-08-28T00:16:23.553Z,3.00
2017-08-28T00:16:27.814Z,3.00
2017-08-28T00:16:32.084Z,2.90
2017-08-28T00:16:36.324Z,2.90
2017-08-28T00:16:41.369Z,2.90
2017-08-28T00:16:45.628Z,2.90
2017-08-28T00:16:49.883Z,2.90
2017-08-28T00:16:54.149Z,2.90
2017-08-28T00:16:59.170Z,2.90
2017-08-28T00:17:03.428Z,2.90
2017-08-28T00:17:07.695Z,2.80
2017-08-28T00:17:11.944Z,2.80
2017-08-28T00:17:16.196Z,2.75
2017-08-28T00:17:20.447Z,2.60
2017-08-28T00:17:24.688Z,2.60
2017-08-28T00:17:28.973Z,2.60
2017-08-28T00:17:34.033Z,2.60
2017-08-28T00:17:38.280Z,2.60
2017-08-28T00:17:43.294Z,2.70
2017-08-28T00:17:47.543Z,2.70
2017-08-28T00:17:51.820Z,2.80
2017-08-28T00:17:56.074Z,2.80
2017-08-28T00:18:00.340Z,2.80
2017-08-28T00:18:04.607Z,2.80
2017-08-28T00:18:08.850Z,2.80
2017-08-28T00:18:13.128Z,2.80
2017-08-28T00:18:17.364Z,2.85
2017-08-28T00:18:21.622Z,2.90
2017-08-28T00:18:25.879Z,2.90
2017-08-28T00:18:30.153Z,2.85
2017-08-28T00:18:34.428Z,2.83
2017-08-28T00:18:38.676Z,2.80
2017-08-28T00:18:42.944Z,2.70
2017-08-28T00:18:47.202Z,2.80
2017-08-28T00:18:51.470Z,2.70
2017-08-28T00:18:55.752Z,2.70
2017-08-28T00:19:00.007Z,2.60
2017-08-28T00:19:05.019Z,2.70
2017-08-28T00:19:09.290Z,2.70
2017-08-28T00:19:13.554Z,2.70
2017-08-28T00:19:17.814Z,2.60
2017-08-28T00:19:22.071Z,2.60
2017-08-28T00:19:26.325Z,2.60
2017-08-28T00:19:30.582Z,2.70
2017-08-28T00:19:34.840Z,2.70
2017-08-28T00:19:39.099Z,2.70
2017-08-28T00:19:43.366Z,2.70
2017-08-28T00:19:47.618Z,2.70
2017-08-28T00:19:52.643Z,2.70
2017-08-28T00:19:56.912Z,2.70
2017-08-28T00:20:01.172Z,2.70
2017-08-28T00:20:05.464Z,2.70
2017-08-28T00:20:09.730Z,2.70
2017-08-28T00:20:14.062Z,2.80
2017-08-28T00:20:18.326Z,2.80
2017-08-28T00:20:22.581Z,2.75
2017-08-28T00:20:26.840Z,2.70
2017-08-28T00:20:31.171Z,2.70
2017-08-28T00:20:35.429Z,2.70
2017-08-28T00:20:39.696Z,2.75
2017-08-28T00:20:43.944Z,2.80
2017-08-28T00:20:48.200Z,2.83
2017-08-28T00:20:52.462Z,2.90
2017-08-28T00:20:56.704Z,2.90
2017-08-28T00:21:00.962Z,2.93
2017-08-28T00:21:05.232Z,3.00
2017-08-28T00:21:09.481Z,2.95
2017-08-28T00:21:13.747Z,2.90
2017-08-28T00:21:18.036Z,2.90
2017-08-28T00:21:22.304Z,3.00
2017-08-28T00:21:26.575Z,3.10
2017-08-28T00:21:30.828Z,3.00
2017-08-28T00:21:35.098Z,3.00
2017-08-28T00:21:39.361Z,3.00
2017-08-28T00:21:43.600Z,2.90
2017-08-28T00:21:47.858Z,2.83
2017-08-28T00:21:52.132Z,2.80
2017-08-28T00:21:57.181Z,2.90
2017-08-28T00:22:01.440Z,2.90
2017-08-28T00:22:05.700Z,3.00
2017-08-28T00:22:09.984Z,3.00
2017-08-28T00:22:14.252Z,3.00
2017-08-28T00:22:19.268Z,3.05
2017-08-28T00:22:24.276Z,3.10
2017-08-28T00:22:28.539Z,3.10
2017-08-28T00:22:32.820Z,3.27
2017-08-28T00:22:37.861Z,3.30
2017-08-28T00:22:42.110Z,3.30
2017-08-28T00:22:46.352Z,3.20
2017-08-28T00:22:50.606Z,3.20
2017-08-28T00:22:54.878Z,3.20
2017-08-28T00:22:59.170Z,3.10
2017-08-28T00:23:03.433Z,3.10
2017-08-28T00:23:07.716Z,3.03
2017-08-28T00:23:11.960Z,3.00
2017-08-28T00:23:16.223Z,3.00
2017-08-28T00:23:20.476Z,2.90
2017-08-28T00:23:24.728Z,2.80
2017-08-28T00:23:28.987Z,2.70
2017-08-28T00:23:33.224Z,2.55
2017-08-28T00:23:37.498Z,2.60
2017-08-28T00:23:42.524Z,2.65
2017-08-28T00:23:46.778Z,2.80
2017-08-28T00:23:51.044Z,2.80
2017-08-28T00:23:55.294Z,2.90
2017-08-28T00:23:59.581Z,2.90
2017-08-28T00:24:03.842Z,2.80
2017-08-28T00:24:08.095Z,2.80
2017-08-28T00:24:12.346Z,2.80
2017-08-28T00:24:16.596Z,2.80
2017-08-28T00:24:20.869Z,2.80
2017-08-28T00:24:25.108Z,2.80
2017-08-28T00:24:30.147Z,2.80
2017-08-28T00:24:34.400Z,2.97
2017-08-28T00:24:38.656Z,2.90
2017-08-28T00:24:42.923Z,2.80
2017-08-28T00:24:47.182Z,2.70
2017-08-28T00:24:51.460Z,2.70
2017-08-28T00:24:55.733Z,2.60
2017-08-28T00:24:59.983Z,2.50
2017-08-28T00:25:04.257Z,2.50
2017-08-28T00:25:08.528Z,2.60
2017-08-28T00:25:12.768Z,2.50
2017-08-28T00:25:17.057Z,2.55
2017-08-28T00:25:21.325Z,2.60
2017-08-28T00:25:25.596Z,2.60
2017-08-28T00:25:29.853Z,2.75
2017-08-28T00:25:34.128Z,2.70
2017-08-28T00:25:38.396Z,2.70
2017-08-28T00:25:42.650Z,2.80
2017-08-28T00:25:47.668Z,2.75
2017-08-28T00:25:51.919Z,2.70
2017-08-28T00:25:56.164Z,2.80
2017-08-28T00:26:00.444Z,2.90
2017-08-28T00:26:05.452Z,2.85
2017-08-28T00:26:09.706Z,2.80
2017-08-28T00:26:13.976Z,2.80
2017-08-28T00:26:18.236Z,2.80
2017-08-28T00:26:22.501Z,2.90
2017-08-28T00:26:26.740Z,2.90
2017-08-28T00:26:31.006Z,2.80
2017-08-28T00:26:35.274Z,2.75
2017-08-28T00:26:39.547Z,2.75
2017-08-28T00:26:43.782Z,2.80
2017-08-28T00:26:48.051Z,2.90
2017-08-28T00:26:52.306Z,2.90
2017-08-28T00:26:56.554Z,2.90
2017-08-28T00:27:00.810Z,2.80
2017-08-28T00:27:05.075Z,2.80
2017-08-28T00:27:09.327Z,2.80
2017-08-28T00:27:13.583Z,2.80
2017-08-28T00:27:17.850Z,2.90
2017-08-28T00:27:22.102Z,2.80
2017-08-28T00:27:26.400Z,2.60
2017-08-28T00:27:30.648Z,2.65
2017-08-28T00:27:34.924Z,2.70
2017-08-28T00:27:39.178Z,2.70
2017-08-28T00:27:43.469Z,2.60
2017-08-28T00:27:47.740Z,2.60
2017-08-28T00:27:51.982Z,2.60
2017-08-28T00:27:57.026Z,2.60
2017-08-28T00:28:01.274Z,2.60
2017-08-28T00:28:05.524Z,2.60
2017-08-28T00:28:09.809Z,2.60
2017-08-28T00:28:14.085Z,2.50
2017-08-28T00:28:18.352Z,2.50
2017-08-28T00:28:22.603Z,2.60
2017-08-28T00:28:26.867Z,2.60
2017-08-28T00:28:31.127Z,2.60
2017-08-28T00:28:35.378Z,2.60
2017-08-28T00:28:39.666Z,2.60
2017-08-28T00:28:43.936Z,2.60
2017-08-28T00:28:48.175Z,2.60
2017-08-28T00:28:53.206Z,2.60
2017-08-28T00:28:57.462Z,2.63
2017-08-28T00:29:01.724Z,2.70
2017-08-28T00:29:05.968Z,2.70
2017-08-28T00:29:10.222Z,2.70
2017-08-28T00:29:14.486Z,2.70
2017-08-28T00:29:18.736Z,2.65
2017-08-28T00:29:22.982Z,2.60
2017-08-28T00:29:27.272Z,2.70
2017-08-28T00:29:31.530Z,2.63
2017-08-28T00:29:35.790Z,2.70
2017-08-28T00:29:40.060Z,2.70
2017-08-28T00:29:44.340Z,2.70
2017-08-28T00:29:48.596Z,2.60
2017-08-28T00:29:52.858Z,2.60
2017-08-28T00:29:57.110Z,2.60
2017-08-28T00:30:01.383Z,2.50
2017-08-28T00:30:05.655Z,2.50
2017-08-28T00:30:09.894Z,2.55
2017-08-28T00:30:14.168Z,2.60
2017-08-28T00:30:18.450Z,2.70
2017-08-28T00:30:22.717Z,2.75
2017-08-28T00:30:26.988Z,2.80
2017-08-28T00:30:31.236Z,2.80
2017-08-28T00:30:35.490Z,2.80
2017-08-28T00:30:39.729Z,2.90
2017-08-28T00:30:43.979Z,2.90
2017-08-28T00:30:48.260Z,3.03
2017-08-28T00:30:52.521Z,3.10
2017-08-28T00:30:59.882Z,3.00
2017-08-28T00:31:04.136Z,3.03
2017-08-28T00:31:08.403Z,3.00
2017-08-28T00:31:12.664Z,3.00
2017-08-28T00:31:17.151Z,3.00
2017-08-28T00:31:21.417Z,2.90
2017-08-28T00:31:25.658Z,2.80
2017-08-28T00:31:29.940Z,2.80
2017-08-28T00:31:34.198Z,2.73
2017-08-28T00:31:38.465Z,2.65
2017-08-28T00:31:42.700Z,2.60
2017-08-28T00:31:46.981Z,2.47
2017-08-28T00:31:52.024Z,2.40
2017-08-28T00:31:56.279Z,2.40
2017-08-28T00:32:00.533Z,2.40
2017-08-28T00:32:04.826Z,2.40
2017-08-28T00:32:09.124Z,2.40
2017-08-28T00:32:13.371Z,2.40
2017-08-28T00:32:17.623Z,2.30
2017-08-28T00:32:21.900Z,2.30
2017-08-28T00:32:26.154Z,2.50
2017-08-28T00:32:30.400Z,2.50
2017-08-28T00:32:34.662Z,2.60
2017-08-28T00:32:38.961Z,2.70
2017-08-28T00:32:43.262Z,2.70
2017-08-28T00:32:47.545Z,2.70
2017-08-28T00:32:51.784Z,2.70
2017-08-28T00:32:56.809Z,2.80
2017-08-28T00:33:01.068Z,2.80
2017-08-28T00:33:05.333Z,2.70
2017-08-28T00:33:09.619Z,2.70
2017-08-28T00:33:13.886Z,2.73
2017-08-28T00:33:18.140Z,2.80
2017-08-28T00:33:23.188Z,2.75
2017-08-28T00:33:28.196Z,2.57
2017-08-28T00:33:32.465Z,2.50
2017-08-28T00:33:36.726Z,2.50
2017-08-28T00:33:41.009Z,2.50
2017-08-28T00:33:45.265Z,2.60
2017-08-28T00:33:49.504Z,2.60
2017-08-28T00:33:53.780Z,2.60
2017-08-28T00:33:58.024Z,2.55
2017-08-28T00:34:02.278Z,2.60
2017-08-28T00:34:06.550Z,2.60
2017-08-28T00:34:10.811Z,2.70
2017-08-28T00:34:15.072Z,2.80
2017-08-28T00:34:19.312Z,2.80
2017-08-28T00:34:23.588Z,2.93
2017-08-28T00:34:27.824Z,3.00
2017-08-28T00:34:32.097Z,3.00
2017-08-28T00:34:36.342Z,3.00
2017-08-28T00:34:40.621Z,3.00
2017-08-28T00:34:44.874Z,3.00
2017-08-28T00:34:49.128Z,3.00
2017-08-28T00:34:53.397Z,3.17
2017-08-28T00:34:57.636Z,3.20
2017-08-28T00:35:01.889Z,3.20
2017-08-28T00:35:06.165Z,3.10
2017-08-28T00:35:10.436Z,3.10
2017-08-28T00:35:14.686Z,3.10
2017-08-28T00:35:18.960Z,3.05
2017-08-28T00:35:23.210Z,2.90
2017-08-28T00:35:27.475Z,2.90
2017-08-28T00:35:31.733Z,2.95
2017-08-28T00:35:35.986Z,3.00
2017-08-28T00:35:40.278Z,3.13
2017-08-28T00:35:44.508Z,3.10
2017-08-28T00:35:48.780Z,3.20
2017-08-28T00:35:53.023Z,3.05
2017-08-28T00:35:57.287Z,3.00
2017-08-28T00:36:01.538Z,3.00
2017-08-28T00:36:05.784Z,3.00
2017-08-28T00:36:10.076Z,2.97
2017-08-28T00:36:14.330Z,2.90
2017-08-28T00:36:18.588Z,3.00
2017-08-28T00:36:22.865Z,3.10
2017-08-28T00:36:27.140Z,3.10
2017-08-28T00:36:31.394Z,3.00
2017-08-28T00:36:35.650Z,3.00
2017-08-28T00:36:39.896Z,2.90
2017-08-28T00:36:44.176Z,2.90
2017-08-28T00:36:48.432Z,3.00
2017-08-28T00:36:52.700Z,3.10
2017-08-28T00:36:56.973Z,3.07
2017-08-28T00:37:01.261Z,3.05
2017-08-28T00:37:05.529Z,3.10
2017-08-28T00:37:09.774Z,3.10
2017-08-28T00:37:14.052Z,3.23
2017-08-28T00:37:18.302Z,3.20
2017-08-28T00:37:22.570Z,3.20
2017-08-28T00:37:26.846Z,3.30
2017-08-28T00:37:32.059Z,3.40
2017-08-28T00:37:37.090Z,3.30
2017-08-28T00:37:41.356Z,3.27
2017-08-28T00:37:45.643Z,3.20
2017-08-28T00:37:49.920Z,3.13
2017-08-28T00:37:54.184Z,3.00
2017-08-28T00:37:58.446Z,3.00
2017-08-28T00:38:02.680Z,3.00
2017-08-28T00:38:06.942Z,3.00
2017-08-28T00:38:11.207Z,3.00
2017-08-28T00:38:15.444Z,2.90
2017-08-28T00:38:20.245Z,2.90
2017-08-28T00:38:24.528Z,2.90
2017-08-28T00:38:28.828Z,2.80
2017-08-28T00:38:33.603Z,2.80
2017-08-28T00:38:37.853Z,2.77
2017-08-28T00:38:42.141Z,2.80
2017-08-28T00:38:46.376Z,2.80
2017-08-28T00:38:50.676Z,2.80
2017-08-28T00:38:54.944Z,2.80
2017-08-28T00:38:59.219Z,2.80
2017-08-28T00:39:04.248Z,2.80
2017-08-28T00:39:08.513Z,2.73
2017-08-28T00:39:12.788Z,2.80
2017-08-28T00:39:17.039Z,2.80
2017-08-28T00:39:21.298Z,2.70
2017-08-28T00:39:25.572Z,2.77
2017-08-28T00:39:29.848Z,2.70
2017-08-28T00:39:34.112Z,2.70
2017-08-28T00:39:38.365Z,2.70
2017-08-28T00:39:42.649Z,2.60
2017-08-28T00:39:46.880Z,2.60
2017-08-28T00:39:51.164Z,2.55
2017-08-28T00:39:55.421Z,2.60
2017-08-28T00:39:59.668Z,2.70
2017-08-28T00:40:03.941Z,2.60
2017-08-28T00:40:08.198Z,2.60
2017-08-28T00:40:12.471Z,2.60
2017-08-28T00:40:16.745Z,2.65
2017-08-28T00:40:20.990Z,2.70
2017-08-28T00:40:25.257Z,2.77
2017-08-28T00:40:29.496Z,2.80
2017-08-28T00:40:33.753Z,2.80
2017-08-28T00:40:38.006Z,2.75
2017-08-28T00:40:42.290Z,2.70
2017-08-28T00:40:46.527Z,2.75
2017-08-28T00:40:50.784Z,2.80
2017-08-28T00:40:55.041Z,2.80
2017-08-28T00:40:59.296Z,2.80
2017-08-28T00:41:03.560Z,2.90
2017-08-28T00:41:07.818Z,2.90
2017-08-28T00:41:12.088Z,3.00
2017-08-28T00:41:16.356Z,2.90
2017-08-28T00:41:20.618Z,3.00
2017-08-28T00:41:24.879Z,2.90
2017-08-28T00:41:29.168Z,2.90
2017-08-28T00:41:33.410Z,3.00
2017-08-28T00:41:37.652Z,3.00
2017-08-28T00:41:41.905Z,3.00
2017-08-28T00:41:46.178Z,2.93
2017-08-28T00:41:50.463Z,2.90
2017-08-28T00:41:54.706Z,2.90
2017-08-28T00:41:58.959Z,2.80
2017-08-28T00:42:03.222Z,2.80
2017-08-28T00:42:07.486Z,2.70
2017-08-28T00:42:11.728Z,2.70
2017-08-28T00:42:16.008Z,2.70
2017-08-28T00:42:20.244Z,2.70
2017-08-28T00:42:24.510Z,2.75
2017-08-28T00:42:28.752Z,2.80
2017-08-28T00:42:33.012Z,2.80
2017-08-28T00:42:38.032Z,2.85
2017-08-28T00:42:42.360Z,3.00
2017-08-28T00:42:46.604Z,3.00
2017-08-28T00:42:51.646Z,3.17
2017-08-28T00:42:55.914Z,3.20
2017-08-28T00:43:00.160Z,3.10
2017-08-28T00:43:04.433Z,3.10
2017-08-28T00:43:08.679Z,3.10
2017-08-28T00:43:12.948Z,3.20
2017-08-28T00:43:17.965Z,3.20
2017-08-28T00:43:22.260Z,3.10
2017-08-28T00:43:26.516Z,3.00
2017-08-28T00:43:30.782Z,3.00
2017-08-28T00:43:35.040Z,3.00
2017-08-28T00:43:39.312Z,3.10
2017-08-28T00:43:43.581Z,3.00
2017-08-28T00:43:47.838Z,2.90
2017-08-28T00:43:52.096Z,2.80
2017-08-28T00:43:56.363Z,2.80
2017-08-28T00:44:00.630Z,2.80
2017-08-28T00:44:04.872Z,2.80
2017-08-28T00:44:09.115Z,2.80
2017-08-28T00:44:13.360Z,2.70
2017-08-28T00:44:17.645Z,2.70
2017-08-28T00:44:21.894Z,2.80
2017-08-28T00:44:26.168Z,2.80
2017-08-28T00:44:30.427Z,2.70
2017-08-28T00:44:34.692Z,2.65
2017-08-28T00:44:38.929Z,2.55
2017-08-28T00:44:43.172Z,2.50
2017-08-28T00:44:47.439Z,2.60
2017-08-28T00:44:51.714Z,2.60
2017-08-28T00:44:55.986Z,2.60
2017-08-28T00:45:00.998Z,2.60
2017-08-28T00:45:05.252Z,2.70
2017-08-28T00:45:09.518Z,2.70
2017-08-28T00:45:13.764Z,2.70
2017-08-28T00:45:18.019Z,2.70
2017-08-28T00:45:22.256Z,2.70
2017-08-28T00:45:26.527Z,2.70
2017-08-28T00:45:30.768Z,2.80
2017-08-28T00:45:35.022Z,2.80
2017-08-28T00:45:39.282Z,2.80
2017-08-28T00:45:44.296Z,2.90
2017-08-28T00:45:48.613Z,2.80
2017-08-28T00:45:52.857Z,2.80
2017-08-28T00:45:57.139Z,2.87
2017-08-28T00:46:01.408Z,3.00
2017-08-28T00:46:05.667Z,3.00
2017-08-28T00:46:09.907Z,2.90
2017-08-28T00:46:14.185Z,3.00
2017-08-28T00:46:18.434Z,3.00
2017-08-28T00:46:22.700Z,3.00
2017-08-28T00:46:26.964Z,3.10
2017-08-28T00:46:31.236Z,3.07
2017-08-28T00:46:35.501Z,3.10
2017-08-28T00:46:39.768Z,3.10
2017-08-28T00:46:44.008Z,3.00
2017-08-28T00:46:48.280Z,3.15
2017-08-28T00:46:52.546Z,3.20
2017-08-28T00:46:56.778Z,3.15
2017-08-28T00:47:01.047Z,3.00
2017-08-28T00:47:05.302Z,3.05
2017-08-28T00:47:09.567Z,3.10
2017-08-28T00:47:13.808Z,3.05
2017-08-28T00:47:18.070Z,3.10
2017-08-28T00:47:22.319Z,3.00
2017-08-28T00:47:26.570Z,3.00
2017-08-28T00:47:30.836Z,3.00
2017-08-28T00:47:35.093Z,3.00
2017-08-28T00:47:39.351Z,3.00
2017-08-28T00:47:43.591Z,3.10
2017-08-28T00:47:47.848Z,3.00
2017-08-28T00:47:52.136Z,3.00
2017-08-28T00:47:56.360Z,3.00
2017-08-28T00:48:00.622Z,3.00
2017-08-28T00:48:04.894Z,3.00
2017-08-28T00:48:09.139Z,3.00
2017-08-28T00:48:13.384Z,3.10
2017-08-28T00:48:17.620Z,3.00
2017-08-28T00:48:21.877Z,3.00
2017-08-28T00:48:26.134Z,3.00
2017-08-28T00:48:30.377Z,3.00
2017-08-28T00:48:34.657Z,3.00
2017-08-28T00:48:38.905Z,3.00
2017-08-28T00:48:43.157Z,3.00
2017-08-28T00:48:47.422Z,3.00
2017-08-28T00:48:51.672Z,3.10
2017-08-28T00:48:55.921Z,3.10
2017-08-28T00:49:00.200Z,3.00
2017-08-28T00:49:04.464Z,3.00
2017-08-28T00:49:08.722Z,2.90
2017-08-28T00:49:12.973Z,2.80
2017-08-28T00:49:17.244Z,2.80
2017-08-28T00:49:21.496Z,2.90
2017-08-28T00:49:25.766Z,2.90
2017-08-28T00:49:30.036Z,2.90
2017-08-28T00:49:34.290Z,2.90
2017-08-28T00:49:38.566Z,2.90
2017-08-28T00:49:42.836Z,2.90
2017-08-28T00:49:47.097Z,2.75
2017-08-28T00:49:51.354Z,2.70
2017-08-28T00:49:55.650Z,2.75
2017-08-28T00:49:59.884Z,2.80
2017-08-28T00:50:04.153Z,2.90
2017-08-28T00:50:08.422Z,2.93
2017-08-28T00:50:12.660Z,3.00
2017-08-28T00:50:16.920Z,3.00
2017-08-28T00:50:21.163Z,3.10
2017-08-28T00:50:25.418Z,3.03
2017-08-28T00:50:29.677Z,3.10
2017-08-28T00:50:33.933Z,3.10
2017-08-28T00:50:38.171Z,3.05
2017-08-28T00:50:42.434Z,3.00
2017-08-28T00:50:46.683Z,3.00
2017-08-28T00:50:51.716Z,3.00
2017-08-28T00:50:55.968Z,2.90
2017-08-28T00:51:00.262Z,2.97
2017-08-28T00:51:07.554Z,2.90
2017-08-28T00:51:11.820Z,2.86
2017-08-28T00:51:16.104Z,2.70
2017-08-28T00:51:20.362Z,2.65
2017-08-28T00:51:24.624Z,2.60
2017-08-28T00:51:28.878Z,2.60
2017-08-28T00:51:33.139Z,2.60
2017-08-28T00:51:37.406Z,2.60
2017-08-28T00:51:41.682Z,2.70
2017-08-28T00:51:45.943Z,2.90
2017-08-28T00:51:50.208Z,3.03
2017-08-28T00:51:54.478Z,3.10
2017-08-28T00:51:58.745Z,3.10
2017-08-28T00:52:03.020Z,3.10
2017-08-28T00:52:07.280Z,3.10
2017-08-28T00:52:12.285Z,3.25
2017-08-28T00:52:16.560Z,3.30
2017-08-28T00:52:20.800Z,3.40
2017-08-28T00:52:25.066Z,3.37
2017-08-28T00:52:29.322Z,3.30
2017-08-28T00:52:33.578Z,3.30
2017-08-28T00:52:37.843Z,3.40
2017-08-28T00:52:42.108Z,3.35
2017-08-28T00:52:46.357Z,3.30
2017-08-28T00:52:50.606Z,3.20
2017-08-28T00:52:54.861Z,3.30
2017-08-28T00:52:59.111Z,3.30
2017-08-28T00:53:03.381Z,3.30
2017-08-28T00:53:07.630Z,3.20
2017-08-28T00:53:11.895Z,3.10
2017-08-28T00:53:16.162Z,3.10
2017-08-28T00:53:20.424Z,3.10
2017-08-28T00:53:24.683Z,3.10
2017-08-28T00:53:28.951Z,3.10
2017-08-28T00:53:33.217Z,3.10
2017-08-28T00:53:37.462Z,3.10
2017-08-28T00:53:41.738Z,3.20
2017-08-28T00:53:46.004Z,3.20
2017-08-28T00:53:50.240Z,3.20
2017-08-28T00:53:54.503Z,3.15
2017-08-28T00:53:58.757Z,3.10
2017-08-28T00:54:03.018Z,3.10
2017-08-28T00:54:07.286Z,3.10
2017-08-28T00:54:11.575Z,3.10
2017-08-28T00:54:15.828Z,3.20
2017-08-28T00:54:20.080Z,3.10
2017-08-28T00:54:24.337Z,3.10
2017-08-28T00:54:28.608Z,3.10
2017-08-28T00:54:32.876Z,3.20
2017-08-28T00:54:37.110Z,3.20
2017-08-28T00:54:41.388Z,3.05
2017-08-28T00:54:46.416Z,3.00
2017-08-28T00:54:50.656Z,2.90
2017-08-28T00:54:54.900Z,2.90
2017-08-28T00:54:59.232Z,2.85
2017-08-28T00:55:04.250Z,2.70
2017-08-28T00:55:08.529Z,2.73
2017-08-28T00:55:13.576Z,2.80
2017-08-28T00:55:17.830Z,2.80
2017-08-28T00:55:22.110Z,2.80
2017-08-28T00:55:26.349Z,2.77
2017-08-28T00:55:30.628Z,2.70
2017-08-28T00:55:34.869Z,2.65
2017-08-28T00:55:39.149Z,2.60
2017-08-28T00:55:43.402Z,2.70
2017-08-28T00:55:47.676Z,2.70
2017-08-28T00:55:51.928Z,2.80
2017-08-28T00:55:56.186Z,2.90
2017-08-28T00:56:00.452Z,3.00
2017-08-28T00:56:04.720Z,2.95
2017-08-28T00:56:08.982Z,2.90
2017-08-28T00:56:13.250Z,2.90
2017-08-28T00:56:17.507Z,2.90
2017-08-28T00:56:21.752Z,2.85
2017-08-28T00:56:25.996Z,2.90
2017-08-28T00:56:30.270Z,3.00
2017-08-28T00:56:34.518Z,3.00
2017-08-28T00:56:38.784Z,2.90
2017-08-28T00:56:43.053Z,2.97
2017-08-28T00:56:47.309Z,3.00
2017-08-28T00:56:51.576Z,3.00
2017-08-28T00:56:55.824Z,3.00
2017-08-28T00:57:00.076Z,2.97
2017-08-28T00:57:04.334Z,3.00
2017-08-28T00:57:08.613Z,3.05
2017-08-28T00:57:12.864Z,3.10
2017-08-28T00:57:17.134Z,3.13
2017-08-28T00:57:22.157Z,3.10
2017-08-28T00:57:27.182Z,3.00